»·PEaware :: SWA1843 KLAS-KSNA

SWA1843 :: KLAS-KSNA

FLIGHT INFORMATION

Flight Status: Arrived
Operator:
Southwest Airlines
More flights by this operator :: More flights under this callsign
Pilot: Joshua S. (27297)
Aircraft: BOEING 737-800
(B738)
More flights by this aircraft type
Origin: KLAS McCarran Intl
United States
Destination: KSNA John Wayne-Orange Co
United States
More flights between these airports :: More routes between these airports
Route: +BOACH8 WHIGG FEYLA DSNEE4
File this flight plan on PilotEdge
Remarks:
Altitude:
(Current/Filed)
32,000ft
Speed:
(Current/Filed)
450kts
Departed: 21-May-20 08:53 PM
Arrived: 21-May-20 09:35 PM
Distance/Time
Traveled:
196nm/0:42
Distance/Time
To Go:
Arrived

Flight Plot

Page will automatically refresh every two minutes.


Map Options




Map Legend


Flown Route
Filed Route
Departure Airport
Arrival Airport
Navaid (VOR, NDB)
Fix

Horizontal Profiles

Position Reports

Time Latitude Longitude Heading Altitude Ground
Speed
21-May-20 20:15 36.081231 -115.146085 254 2189ft 0kts
21-May-20 20:16 36.081231 -115.146085 254 2189ft 0kts
21-May-20 20:17 36.081231 -115.146085 254 2189ft 0kts
21-May-20 20:17 36.081231 -115.146085 254 2189ft 0kts
21-May-20 20:19 36.081231 -115.146085 254 2189ft 0kts
21-May-20 20:20 36.081231 -115.146085 254 2189ft 0kts
21-May-20 20:20 36.081231 -115.146085 254 2189ft 0kts
21-May-20 20:21 36.081231 -115.146085 254 2189ft 0kts
21-May-20 20:22 36.081231 -115.146085 254 2189ft 0kts
21-May-20 20:23 36.081231 -115.146085 254 2189ft 0kts
21-May-20 20:24 36.081231 -115.146085 254 2189ft 0kts
21-May-20 20:25 36.081231 -115.146085 254 2189ft 0kts
21-May-20 20:26 36.081231 -115.146085 254 2189ft 0kts
21-May-20 20:27 36.081231 -115.146085 254 2189ft 0kts
21-May-20 20:28 36.081231 -115.146085 254 2189ft 0kts
21-May-20 20:29 36.081231 -115.146085 254 2189ft 0kts
21-May-20 20:30 36.081231 -115.146085 254 2189ft 0kts
21-May-20 20:31 36.081231 -115.146085 254 2189ft 0kts
21-May-20 20:32 36.081231 -115.146085 254 2189ft 0kts
21-May-20 20:33 36.081231 -115.146085 254 2189ft 0kts
21-May-20 20:34 36.081231 -115.146085 254 2189ft 0kts
21-May-20 20:35 36.081231 -115.146085 254 2189ft 0kts
21-May-20 20:36 36.081231 -115.146085 254 2189ft 0kts
21-May-20 20:37 36.081231 -115.146085 254 2189ft 0kts
21-May-20 20:38 36.081231 -115.146085 254 2189ft 0kts
21-May-20 20:39 36.081579 -115.145410 188 2189ft 2kts
21-May-20 20:40 36.081772 -115.145460 155 2189ft 0kts
21-May-20 20:41 36.081772 -115.145460 155 2189ft 0kts
21-May-20 20:42 36.081772 -115.145460 155 2189ft 0kts
21-May-20 20:43 36.080469 -115.144867 178 2189ft 9kts
21-May-20 20:44 36.078711 -115.144827 169 2189ft 0kts
21-May-20 20:45 36.077946 -115.144561 197 2189ft 5kts
21-May-20 20:46 36.077928 -115.149450 274 2189ft 18kts
21-May-20 20:47 36.080113 -115.154120 333 2189ft 16kts
21-May-20 20:48 36.083699 -115.156172 335 2189ft 12kts
21-May-20 20:49 36.087840 -115.157498 23 2189ft 18kts
21-May-20 20:50 36.093004 -115.154549 24 2189ft 20kts
21-May-20 20:51 36.097266 -115.152102 8 2189ft 12kts
21-May-20 20:52 36.095438 -115.155349 203 2189ft 70kts
21-May-20 20:53 36.057485 -115.176618 205 3388ft 180kts
21-May-20 20:54 36.010161 -115.212427 233 4801ft 237kts
21-May-20 20:55 35.973512 -115.289586 224 6804ft 277kts
21-May-20 20:56 35.897896 -115.310564 186 9712ft 291kts
21-May-20 20:57 35.810746 -115.310465 175 11775ft 350kts
21-May-20 20:58 35.710680 -115.298845 180 12987ft 362kts
21-May-20 20:59 35.628502 -115.358863 230 13897ft 355kts
21-May-20 21:00 35.562227 -115.451162 229 16886ft 365kts
21-May-20 21:01 35.492329 -115.545076 229 19470ft 378kts
21-May-20 21:02 35.420721 -115.641752 230 21793ft 390kts
21-May-20 21:03 35.346344 -115.741658 231 23832ft 402kts
21-May-20 21:04 35.269796 -115.843881 231 25788ft 409kts
21-May-20 21:05 35.192431 -115.945258 230 27797ft 407kts
21-May-20 21:06 35.113541 -116.043941 230 27913ft 404kts
21-May-20 21:07 35.036886 -116.140920 230 27917ft 389kts
21-May-20 21:08 34.961215 -116.235631 230 27932ft 389kts
21-May-20 21:09 34.885929 -116.329655 230 27931ft 376kts
21-May-20 21:10 34.815028 -116.420231 231 27728ft 367kts
21-May-20 21:11 34.745756 -116.508165 230 26202ft 356kts
21-May-20 21:12 34.676324 -116.592735 225 24799ft 356kts
21-May-20 21:13 34.597069 -116.669115 222 22984ft 354kts
21-May-20 21:14 34.522001 -116.742221 222 21123ft 342kts
21-May-20 21:15 34.452919 -116.818804 227 19003ft 331kts
21-May-20 21:16 34.387214 -116.895417 226 17186ft 326kts
21-May-20 21:17 34.321649 -116.971226 225 15553ft 325kts
21-May-20 21:18 34.254127 -117.043402 214 14046ft 322kts
21-May-20 21:19 34.178626 -117.097341 212 13169ft 307kts
21-May-20 21:20 34.103301 -117.139352 204 12644ft 300kts
21-May-20 21:21 34.026253 -117.180255 205 12183ft 302kts
21-May-20 21:22 33.961953 -117.243801 230 11269ft 304kts
21-May-20 21:23 33.908255 -117.320168 229 10037ft 288kts
21-May-20 21:24 33.858580 -117.390317 228 8916ft 266kts
21-May-20 21:25 33.815035 -117.457955 242 7972ft 250kts
21-May-20 21:26 33.799798 -117.536708 286 7581ft 243kts
21-May-20 21:27 33.825170 -117.610667 291 7515ft 238kts
21-May-20 21:28 33.850658 -117.682826 291 6078ft 230kts
21-May-20 21:29 33.852586 -117.753242 236 4051ft 234kts
21-May-20 21:30 33.799747 -117.790465 207 2726ft 205kts
21-May-20 21:31 33.755230 -117.818440 208 1754ft 164kts
21-May-20 21:32 33.719307 -117.841195 207 975ft 138kts
21-May-20 21:33 33.685394 -117.862673 206 192ft 136kts
21-May-20 21:34 33.669352 -117.871855 146 64ft 14kts
21-May-20 21:35 33.670432 -117.869575 41 64ft 14kts
21-May-20 21:36 33.674278 -117.866385 27 64ft 17kts
21-May-20 21:37 33.677747 -117.864164 51 64ft 5kts
21-May-20 21:38 33.677549 -117.863507 117 64ft 3kts
21-May-20 21:39 33.677527 -117.863456 118 64ft 0kts
21-May-20 21:40 33.677527 -117.863456 118 64ft 0kts
21-May-20 21:41 33.677527 -117.863456 118 64ft 0kts
21-May-20 21:42 33.677527 -117.863456 118 64ft 0kts
21-May-20 21:43 33.677527 -117.863456 118 64ft 0kts
21-May-20 21:44 33.677527 -117.863456 118 64ft 0kts

Navigation Log

Ident Type
Flight plan parsing failed, navigation log unavailable